Latest Weather Observations for Devonport Airport

IDT60801

Issued at 3:41 am EST Friday 29 May 2020 (issued every 10 minutes, with the page automatically refreshed every 10 minutes)

About weather observations | Map of weather stations | Latest weather observations for TAS | Other Formats
Station Details ID: 091126 Name: DEVONPORT AIRPORT Lat: -41.17 Lon: 146.43 Height: 8.0 m
Data from the previous 72 hours. | See also: Recent months at Devonport Airport
Date/Time
EST
Temp
°C
App
Temp
°C
Dew
Point
°C
Rel
Hum
%
Delta-T
°C
Wind Press
QNH
hPa
Press
MSL
hPa
Rain since
9am
mm
Dir  Spd
km/h
Gust
km/h
Spd
kts
Gust
kts
29/03:30am 13.3 10.3 12.7 96 0.3 WNW 20 26 11 14 1021.5 1021.5 0.2
29/03:00am 13.5 9.4 12.7 95 0.4 WNW 26 35 14 19 1021.5 1021.5 0.2
29/02:40am 13.3 10.4 12.8 97 0.3 WNW 20 30 11 16 1021.5 1021.5 0.2
29/02:30am 12.9 10.0 12.4 97 0.3 WNW 19 22 10 12 1021.5 1021.5 0.2
29/02:00am 12.3 10.0 11.7 96 0.3 WNW 15 20 8 11 1021.2 1021.2 0.2
29/01:47am 12.1 9.3 11.3 95 0.4 WNW 17 20 9 11 1021.3 1021.3 0.2
29/01:30am 12.0 9.1 11.1 94 0.5 WNW 17 20 9 11 1021.2 1021.2 0.2
29/01:00am 12.2 9.3 11.1 93 0.6 WNW 17 22 9 12 1021.4 1021.4 0.2
29/12:30am 12.4 9.9 11.0 91 0.7 WNW 15 19 8 10 1021.6 1021.6 0.2
29/12:19am 12.2 9.6 10.6 90 0.8 NW 15 20 8 11 1021.7 1021.7 0.2
29/12:00am 11.9 8.9 10.6 92 0.7 NW 17 20 9 11 1021.7 1021.7 0.2
 
Date/Time
EST
Temp
°C
App
Temp
°C
Dew
Point
°C
Rel
Hum
%
Delta-T
°C
Wind Press
QNH
hPa
Press
MSL
hPa
Rain since
9am
mm
Dir  Spd
km/h
Gust
km/h
Spd
kts
Gust
kts
28/11:30pm 12.0 9.0 10.6 91 0.7 WNW 17 20 9 11 1021.6 1021.6 0.2
28/11:00pm 11.8 9.5 10.4 91 0.7 WNW 13 17 7 9 1021.5 1021.5 0.2
28/10:30pm 10.8 9.5 9.2 90 0.8 WSW 6 9 3 5 1021.6 1021.6 0.2
28/10:00pm 10.6 9.2 9.4 92 0.6 W 7 11 4 6 1021.5 1021.5 0.2
28/09:30pm 9.4 6.9 8.3 93 0.5 W 11 13 6 7 1021.5 1021.5 0.2
28/09:00pm 10.1 6.9 8.5 90 0.8 W 15 19 8 10 1021.4 1021.4 0.2
28/08:30pm 11.3 6.3 9.6 89 0.9 W 26 32 14 17 1021.2 1021.2 0.2
28/08:00pm 11.9 7.0 10.0 88 1.0 WNW 26 32 14 17 1020.7 1020.7 0.2
28/07:30pm 11.9 7.8 10.0 88 1.0 WNW 22 30 12 16 1020.4 1020.4 0.2
28/07:00pm 12.2 8.2 10.3 88 1.0 WNW 22 32 12 17 1020.1 1020.1 0.2
28/06:30pm 12.6 7.7 9.8 83 1.4 WNW 26 32 14 17 1019.7 1019.7 0.2
28/06:00pm 12.9 8.0 9.9 82 1.5 WNW 26 32 14 17 1019.3 1019.3 0.2
28/05:30pm 13.2 7.9 9.8 80 1.7 WNW 28 35 15 19 1019.1 1019.1 0.2
28/05:00pm 13.5 8.1 10.9 84 1.4 WNW 30 37 16 20 1018.7 1018.7 0.2
28/04:30pm 13.6 8.6 11.1 85 1.3 WNW 28 35 15 19 1018.2 1018.2 0.2
28/04:00pm 13.8 8.9 11.3 85 1.3 NW 28 37 15 20 1017.7 1017.8 0.2
28/03:30pm 14.1 9.3 11.6 85 1.3 NW 28 35 15 19 1017.6 1017.7 0.2
28/03:00pm 14.1 9.0 11.8 86 1.2 NW 30 37 16 20 1017.5 1017.6 0.2
28/02:30pm 14.2 9.0 11.7 85 1.3 NW 30 37 16 20 1017.5 1017.6 0.2
28/02:00pm 14.4 9.6 11.6 83 1.5 NW 28 37 15 20 1017.3 1017.4 0.2
28/01:30pm 13.8 9.0 11.5 86 1.2 NW 28 33 15 18 1017.5 1017.6 0.2
28/01:00pm 14.4 10.0 11.6 83 1.5 NW 26 32 14 17 1017.7 1017.8 0.2
28/12:30pm 14.2 10.0 11.2 82 1.6 WNW 24 30 13 16 1017.8 1017.9 0.2
28/12:00pm 13.6 10.1 10.8 83 1.5 WNW 20 28 11 15 1018.2 1018.2 0.2
28/11:30am 13.6 9.4 11.1 85 1.3 NW 24 28 13 15 1018.5 1018.5 0.2
28/11:00am 13.7 10.3 11.4 86 1.2 WNW 20 24 11 13 1018.7 1018.7 0.2
28/10:30am 13.5 10.1 11.4 87 1.1 WNW 20 24 11 13 1018.7 1018.7 0.0
28/10:00am 13.1 9.7 11.3 89 0.9 WNW 20 24 11 13 1018.5 1018.5 0.0
28/09:30am 12.9 9.9 12.0 94 0.5 WNW 19 24 10 13 1018.5 1018.5 0.0
28/09:00am 12.4 9.8 11.9 97 0.3 WNW 17 22 9 12 1018.5 1018.5 2.8
28/08:30am 11.8 9.1 11.6 99 0.1 WNW 17 20 9 11 1018.2 1018.2 2.8
28/08:00am 10.9 8.3 10.7 99 0.1 W 15 20 8 11 1018.0 1018.0 2.8
28/07:30am 11.7 9.7 11.5 99 0.1 WNW 13 19 7 10 1017.5 1017.6 2.8
28/07:00am 11.1 8.9 10.9 99 0.1 WNW 13 17 7 9 1017.4 1017.5 2.8
28/06:45am 10.1 8.1 10.0 99 0.1 W 11 13 6 7 1017.3 1017.4 2.8
28/06:30am 10.6 9.4 10.4 99 0.1 WSW 7 9 4 5 1017.2 1017.3 2.8
28/06:19am 10.3 9.6 10.1 99 0.1 WSW 4 7 2 4 1017.0 1017.1 2.8
28/06:00am 11.2 10.4 11.0 99 0.1 SSW 6 7 3 4 1016.9 1017.0 2.8
28/05:30am 11.6 10.9 11.4 99 0.1 WSW 6 7 3 4 1016.7 1016.8 2.8
28/05:19am 11.9 11.3 11.7 99 0.1 SW 6 9 3 5 1016.7 1016.8 2.8
28/05:00am 11.8 10.6 11.6 99 0.1 ENE 9 22 5 12 1016.8 1016.9 2.8
28/04:30am 11.8 12.3 11.6 99 0.1 CALM 0 0 0 0 1016.7 1016.8 2.6
28/04:21am 11.7 12.2 11.5 99 0.1 CALM 0 0 0 0 1016.7 1016.8 2.6
28/04:00am 12.1 12.7 11.8 98 0.2 CALM 0 6 0 3 1016.6 1016.7 2.6
28/03:30am 12.3 11.2 11.8 97 0.3 W 9 13 5 7 1016.7 1016.8 2.4
28/03:00am 12.8 9.7 11.7 93 0.6 W 19 24 10 13 1016.9 1017.0 2.0
28/02:51am 13.0 9.4 11.7 92 0.7 WNW 22 28 12 15 1016.8 1016.9 2.0
28/02:30am 13.5 12.4 13.0 97 0.3 NNE 11 17 6 9 1016.9 1017.0 2.0
28/02:21am 12.4 12.5 11.6 95 0.4 ENE 2 9 1 5 1016.9 1017.0 2.0
28/02:00am 12.5 13.0 11.6 94 0.5 CALM 0 0 0 0 1017.0 1017.1 2.0
28/01:30am 12.8 12.2 12.2 96 0.3 W 7 9 4 5 1017.3 1017.4 2.0
28/01:00am 13.3 12.0 12.4 94 0.5 WNW 11 17 6 9 1017.3 1017.4 1.8
28/12:30am 13.8 10.9 12.2 90 0.9 NW 19 24 10 13 1017.5 1017.6 1.8
28/12:00am 13.7 12.2 13.1 96 0.3 N 13 19 7 10 1017.6 1017.7 1.8
 
Date/Time
EST
Temp
°C
App
Temp
°C
Dew
Point
°C
Rel
Hum
%
Delta-T
°C
Wind Press
QNH
hPa
Press
MSL
hPa
Rain since
9am
mm
Dir  Spd
km/h
Gust
km/h
Spd
kts
Gust
kts
27/11:30pm 13.3 11.6 12.5 95 0.4 N 13 15 7 8 1017.6 1017.7 1.8
27/11:00pm 13.5 10.9 11.9 90 0.9 NNW 17 20 9 11 1017.8 1017.9 1.8
27/10:30pm 13.9 10.7 11.9 88 1.1 NNW 20 24 11 13 1018.1 1018.1 1.8
27/10:00pm 14.0 10.8 12.0 88 1.1 NNW 20 24 11 13 1018.2 1018.2 1.8
27/09:30pm 13.9 11.0 12.3 90 0.9 N 19 24 10 13 1018.2 1018.2 1.8
27/09:00pm 13.4 10.6 12.5 94 0.5 N 19 20 10 11 1018.3 1018.3 1.8
27/08:30pm 13.8 12.1 13.5 98 0.2 N 15 19 8 10 1018.4 1018.4 1.8
27/08:00pm 13.8 12.0 13.3 97 0.3 N 15 17 8 9 1018.4 1018.4 1.8
27/07:30pm 13.7 12.5 12.9 95 0.4 N 11 13 6 7 1018.5 1018.5 1.8
27/07:00pm 13.7 12.6 13.1 96 0.3 N 11 13 6 7 1018.4 1018.4 1.8
27/06:30pm 13.0 12.0 12.2 95 0.4 N 9 11 5 6 1018.3 1018.3 1.8
27/06:00pm 13.6 12.7 12.5 93 0.6 NNW 9 9 5 5 1018.3 1018.3 1.8
27/05:30pm 13.8 12.3 11.8 88 1.1 NNW 11 13 6 7 1018.3 1018.3 1.6
27/05:00pm 13.9 11.9 12.6 92 0.7 N 15 19 8 10 1018.1 1018.1 1.6
27/04:30pm 13.4 12.7 12.0 91 0.8 N 7 9 4 5 1018.1 1018.1 1.6
27/04:00pm 13.6 11.5 12.3 92 0.7 NNW 15 19 8 10 1018.2 1018.2 1.6
27/03:30pm 13.8 12.7 13.2 96 0.3 NE 11 20 6 11 1018.3 1018.3 0.4
27/03:18pm 14.2 13.3 13.6 96 0.3 NE 11 13 6 7 1018.2 1018.2 0.0
27/03:07pm 14.2 13.3 13.6 96 0.3 NE 11 15 6 8 1018.2 1018.2 0.0
27/03:00pm 14.3 13.0 13.7 96 0.3 NE 13 15 7 8 1018.1 1018.1 0.0
27/02:42pm 14.4 13.1 13.8 96 0.3 NE 13 17 7 9 1018.2 1018.2 0.0
27/02:31pm 14.4 13.2 13.9 97 0.3 NE 13 19 7 10 1018.2 1018.2 0.0
27/02:30pm 14.5 13.3 14.0 97 0.3 NE 13 19 7 10 1018.2 1018.2 0.0
27/02:00pm 14.5 12.4 13.7 95 0.4 NE 17 20 9 11 1018.6 1018.6 0.0
27/01:30pm 14.7 12.1 13.9 95 0.4 NE 20 22 11 12 1018.8 1018.8 0.0
27/01:00pm 14.5 11.9 13.9 96 0.3 NE 20 24 11 13 1019.1 1019.1 0.0
27/12:30pm 14.3 11.5 13.3 94 0.6 ENE 20 26 11 14 1019.5 1019.5 0.0
27/12:00pm 14.3 11.1 13.0 92 0.7 NE 22 28 12 15 1020.0 1020.0 0.0
27/11:30am 14.8 11.2 13.2 90 0.9 ENE 24 32 13 17 1020.3 1020.3 0.0
27/11:00am 14.1 10.3 12.5 90 0.9 ENE 24 32 13 17 1020.8 1020.8 0.0
27/10:30am 14.0 11.0 12.4 90 0.9 ENE 20 24 11 13 1021.2 1021.2 0.0
27/10:00am 13.8 11.3 12.4 91 0.8 ENE 17 22 9 12 1021.3 1021.3 0.0
27/09:30am 13.5 12.6 12.7 95 0.4 ESE 9 17 5 9 1021.7 1021.7 0.0
27/09:00am 11.3 9.5 10.8 97 0.3 SSE 11 17 6 9 1021.9 1021.9 0.6
27/08:30am 10.7 7.6 10.4 98 0.2 SSE 17 19 9 10 1022.0 1022.0 0.6
27/08:00am 9.8 6.5 9.5 98 0.1 SSE 17 20 9 11 1022.1 1022.1 0.4
27/07:30am 9.6 6.6 9.3 98 0.1 SSE 15 20 8 11 1022.0 1022.0 0.4
27/07:12am 9.5 6.5 9.2 98 0.1 SSE 15 19 8 10 1022.0 1022.0 0.4
27/07:00am 9.7 6.7 9.2 97 0.2 SSE 15 20 8 11 1022.0 1022.0 0.4
27/06:59am 9.6 6.6 9.1 97 0.2 SSE 15 20 8 11 1022.0 1022.0 0.4
27/06:30am 9.7 6.6 8.8 94 0.4 SSE 15 19 8 10 1022.1 1022.1 0.0
27/06:00am 9.6 6.0 8.2 91 0.7 SSE 17 19 9 10 1022.1 1022.1 0.0
27/05:30am 9.4 5.8 8.2 92 0.6 SSE 17 19 9 10 1022.3 1022.3 0.0
27/05:00am 8.7 4.5 7.6 93 0.5 SSE 19 20 10 11 1022.2 1022.2 0.0
27/04:30am 8.2 4.3 7.1 93 0.5 SSE 17 19 9 10 1022.3 1022.3 0.0
27/04:00am 8.4 4.5 7.2 92 0.6 SSE 17 20 9 11 1022.4 1022.4 0.0
27/03:30am 8.6 4.7 7.2 91 0.7 SSE 17 20 9 11 1022.6 1022.6 0.0
27/03:00am 8.9 4.7 7.5 91 0.7 SSE 19 22 10 12 1022.9 1022.9 0.0
27/02:30am 8.9 5.1 7.4 90 0.7 SSE 17 22 9 12 1023.1 1023.1 0.0
27/02:00am 9.3 5.1 7.6 89 0.8 SSE 19 24 10 13 1023.6 1023.6 0.0
27/01:30am 9.5 6.1 7.8 89 0.8 SSE 15 20 8 11 1023.6 1023.6 0.0
27/01:00am 9.9 5.9 8.3 90 0.8 S 19 26 10 14 1023.8 1023.8 0.0
27/12:30am 9.5 5.5 8.3 92 0.6 S 19 20 10 11 1024.0 1024.0 0.0
27/12:00am 9.8 8.1 8.2 90 0.8 SE 7 17 4 9 1024.3 1024.3 0.0
 
Date/Time
EST
Temp
°C
App
Temp
°C
Dew
Point
°C
Rel
Hum
%
Delta-T
°C
Wind Press
QNH
hPa
Press
MSL
hPa
Rain since
9am
mm
Dir  Spd
km/h
Gust
km/h
Spd
kts
Gust
kts
26/11:30pm 10.4 8.4 8.5 88 0.9 E 9 17 5 9 1024.7 1024.7 0.0
26/11:00pm 9.9 6.7 8.3 90 0.8 SE 15 20 8 11 1024.8 1024.8 0.0
26/10:30pm 9.5 5.7 7.4 87 1.0 SE 17 19 9 10 1025.2 1025.2 0.0
26/10:00pm 10.0 7.0 7.8 86 1.0 SE 13 17 7 9 1025.4 1025.4 0.0
26/09:30pm 9.6 6.1 7.4 86 1.0 SSE 15 19 8 10 1025.7 1025.7 0.0
26/09:00pm 9.8 5.5 7.1 83 1.3 SSE 19 24 10 13 1025.9 1025.9 0.0
26/08:30pm 9.7 5.2 7.0 83 1.3 SSE 20 24 11 13 1025.9 1025.9 0.0
26/08:00pm 9.7 5.8 7.1 84 1.2 SSE 17 19 9 10 1026.0 1026.0 0.0
26/07:30pm 9.9 5.5 7.2 83 1.3 SSE 20 22 11 12 1025.9 1025.9 0.0
26/07:00pm 9.9 6.0 7.3 84 1.2 SSE 17 20 9 11 1025.9 1025.9 0.0
26/06:30pm 9.9 6.0 7.3 84 1.2 SSE 17 20 9 11 1025.6 1025.6 0.0
26/06:00pm 10.1 6.2 7.3 83 1.3 SSE 17 20 9 11 1025.5 1025.5 0.0
26/05:30pm 10.0 6.2 7.4 84 1.2 SSE 17 20 9 11 1025.5 1025.5 0.0
26/05:00pm 10.1 6.3 7.5 84 1.2 SSE 17 20 9 11 1025.5 1025.5 0.0
26/04:30pm 10.3 6.5 7.4 82 1.4 SSE 17 22 9 12 1025.7 1025.7 0.0
26/04:00pm 10.3 6.4 7.2 81 1.5 SSE 17 24 9 13 1025.8 1025.8 0.0
26/03:30pm 10.4 6.5 7.3 81 1.5 SSE 17 20 9 11 1025.9 1025.9 0.0
26/03:00pm 10.4 6.1 6.9 79 1.6 SSE 19 22 10 12 1026.0 1026.0 0.0
26/02:30pm 10.4 5.9 7.1 80 1.6 SSE 20 26 11 14 1026.1 1026.1 0.0
26/02:00pm 10.5 6.1 7.2 80 1.6 SSE 20 24 11 13 1026.4 1026.4 0.0
26/01:30pm 10.7 6.5 7.4 80 1.6 SSE 19 24 10 13 1026.7 1026.7 0.0
26/01:00pm 10.1 5.1 6.6 79 1.6 SSE 22 26 12 14 1026.9 1026.9 0.0
26/12:30pm 9.5 4.1 6.2 80 1.5 SSE 24 30 13 16 1027.5 1027.5 0.0
26/12:00pm 9.1 4.4 6.2 82 1.3 SSE 20 24 11 13 1028.2 1028.2 0.0
26/11:30am 8.7 4.0 6.0 83 1.2 S 20 24 11 13 1028.9 1028.9 0.0
26/11:00am 8.3 3.1 5.6 83 1.2 SSE 22 26 12 14 1029.2 1029.2 0.0
26/10:30am 7.6 3.0 5.6 87 0.9 S 19 24 10 13 1029.6 1029.6 0.0
26/10:00am 6.9 2.3 5.4 90 0.7 S 19 24 10 13 1029.8 1029.8 0.0
26/09:30am 6.2 1.4 4.8 91 0.6 S 19 22 10 12 1029.9 1029.9 0.0
26/09:00am 6.1 1.7 4.7 91 0.6 S 17 20 9 11 1029.7 1029.7 0.0
26/08:30am 5.7 0.9 4.8 94 0.4 S 19 22 10 12 1029.5 1029.5 0.0
26/08:00am 5.2 0.3 4.2 93 0.4 SSE 19 24 10 13 1029.5 1029.5 0.0
26/07:30am 5.2 0.1 4.3 94 0.4 SSE 20 24 11 13 1029.4 1029.4 0.0
26/07:00am 5.6 1.9 4.6 93 0.4 S 13 19 7 10 1029.3 1029.3 0.0
26/06:30am 6.6 2.3 5.2 91 0.6 SSE 17 19 9 10 1029.1 1029.1 0.0
26/06:00am 6.6 1.9 5.1 90 0.7 SSE 19 24 10 13 1029.1 1029.1 0.0
26/05:30am 6.6 1.7 5.2 91 0.6 SSE 20 24 11 13 1029.0 1029.0 0.0
26/05:00am 6.2 1.2 4.7 90 0.6 SSE 20 24 11 13 1029.0 1029.0 0.0
26/04:30am 6.2 1.2 4.8 91 0.6 SSE 20 24 11 13 1028.9 1028.9 0.0
26/04:00am 6.2 1.2 4.8 91 0.6 SSE 20 26 11 14 1028.8 1028.8 0.0

Other formats

Comma delimited format used in spreadsheet applications
http://www.bom.gov.au/fwo/IDT60801/IDT60801.95960.axf

JavaScript Object Notation format (JSON) in row-major order
http://www.bom.gov.au/fwo/IDT60801/IDT60801.95960.json

Data quality

Most of these data are generated automatically and are frequently updated. Quality checks on data are not normally performed. It is possible for incorrect values to appear. Refer to information at About Latest Weather Observations and please check the disclaimer before using these data.